Time,TemperatureF,DewpointF,PressureIn,WindDirection,WindDirectionDegrees,WindSpeedMPH,WindSpeedGustMPH,Humidity,HourlyPrecipIn,Conditions,Clouds,dailyrainin,SoftwareType,DateUTC
2013-11-08 00:13:00,36.0,33.0,29.80,West,276,0.0,2.0,87,0.00,,,0.06,,2013-11-08 05:13:00,
2013-11-08 00:23:00,36.0,32.0,29.80,West,278,2.0,7.0,86,0.00,,,0.06,,2013-11-08 05:23:00,
2013-11-08 00:43:00,38.0,32.0,29.80,West,279,3.0,7.0,78,0.00,,,0.06,,2013-11-08 05:43:00,
2013-11-08 00:54:00,38.0,32.0,29.80,West,279,3.0,7.0,78,0.00,,,0.06,,2013-11-08 05:54:00,
2013-11-08 01:13:00,41.0,32.0,29.81,WNW,295,6.0,19.0,70,0.00,,,0.06,,2013-11-08 06:13:00,
2013-11-08 01:23:00,41.0,32.0,29.81,WNW,295,6.0,19.0,70,0.00,,,0.06,,2013-11-08 06:23:00,
2013-11-08 01:42:00,40.0,31.0,29.82,WNW,292,4.0,11.0,71,0.00,,,0.06,,2013-11-08 06:42:00,
2013-11-08 01:53:00,40.0,31.0,29.82,WNW,292,4.0,11.0,71,0.00,,,0.06,,2013-11-08 06:53:00,
2013-11-08 02:12:00,38.0,29.0,29.83,WNW,283,4.0,14.0,70,0.00,,,0.06,,2013-11-08 07:12:00,
2013-11-08 02:22:00,38.0,29.0,29.83,WNW,285,5.0,11.0,69,0.00,,,0.06,,2013-11-08 07:22:00,
2013-11-08 02:42:00,38.0,28.0,29.83,WNW,291,3.0,8.0,68,0.00,,,0.06,,2013-11-08 07:42:00,
2013-11-08 02:52:00,38.0,28.0,29.83,WNW,291,3.0,8.0,68,0.00,,,0.06,,2013-11-08 07:52:00,
2013-11-08 03:22:00,36.0,26.0,29.83,WNW,291,1.0,4.0,66,0.00,,,0.06,,2013-11-08 08:22:00,
2013-11-08 03:42:00,35.0,27.0,29.83,West,269,0.0,2.0,71,0.00,,,0.06,,2013-11-08 08:42:00,
2013-11-08 03:52:00,33.0,26.0,29.83,West,269,0.0,2.0,74,0.00,,,0.06,,2013-11-08 08:52:00,
2013-11-08 04:22:00,31.0,26.0,29.85,WSW,257,1.0,4.0,81,0.00,,,0.06,,2013-11-08 09:22:00,
2013-11-08 04:43:00,30.0,25.0,29.85,West,267,0.0,3.0,81,0.00,,,0.06,,2013-11-08 09:43:00,
2013-11-08 04:53:00,30.0,25.0,29.85,West,267,0.0,3.0,81,0.00,,,0.06,,2013-11-08 09:53:00,
2013-11-08 05:13:00,29.0,25.0,29.86,West,267,0.0,2.0,83,0.00,,,0.06,,2013-11-08 10:13:00,
2013-11-08 05:23:00,29.0,25.0,29.86,West,267,0.0,2.0,83,0.00,,,0.06,,2013-11-08 10:23:00,
2013-11-08 05:43:00,29.0,25.0,29.86,West,267,0.0,2.0,84,0.00,,,0.06,,2013-11-08 10:43:00,
2013-11-08 05:53:00,28.0,24.0,29.87,North,0,0.0,0.0,85,0.00,,,0.06,,2013-11-08 10:53:00,
2013-11-08 06:12:00,28.0,24.0,29.87,West,267,0.0,2.0,85,0.00,,,0.06,,2013-11-08 11:12:00,
2013-11-08 06:22:00,28.0,24.0,29.87,West,267,0.0,2.0,85,0.00,,,0.06,,2013-11-08 11:22:00,
2013-11-08 06:43:00,27.0,23.0,29.88,North,0,0.0,0.0,86,0.00,,,0.06,,2013-11-08 11:43:00,
2013-11-08 06:52:00,27.0,24.0,29.89,North,0,0.0,0.0,87,0.00,,,0.06,,2013-11-08 11:52:00,
2013-11-08 07:02:00,27.0,24.0,29.89,North,0,0.0,0.0,87,0.00,,,0.06,,2013-11-08 12:02:00,
2013-11-08 07:11:00,27.0,24.0,29.89,North,0,0.0,0.0,87,0.00,,,0.06,,2013-11-08 12:11:00,
2013-11-08 07:21:00,26.0,23.0,29.90,North,0,0.0,0.0,87,0.00,,,0.06,,2013-11-08 12:21:00,
2013-11-08 07:42:00,27.0,24.0,29.90,West,267,0.0,1.0,88,0.00,,,0.06,,2013-11-08 12:42:00,
2013-11-08 07:52:00,27.0,24.0,29.90,West,267,0.0,1.0,88,0.00,,,0.06,,2013-11-08 12:52:00,
2013-11-08 08:11:00,28.0,25.0,29.91,North,0,0.0,0.0,89,0.00,,,0.06,,2013-11-08 13:11:00,
2013-11-08 08:22:00,29.0,26.0,29.91,West,267,0.0,2.0,89,0.00,,,0.06,,2013-11-08 13:22:00,
2013-11-08 08:42:00,32.0,27.0,29.91,SW,233,1.0,4.0,83,0.00,,,0.06,,2013-11-08 13:42:00,
2013-11-08 08:52:00,32.0,27.0,29.91,SW,233,1.0,4.0,83,0.00,,,0.06,,2013-11-08 13:52:00,
2013-11-08 09:11:00,35.0,29.0,29.90,WSW,251,1.0,3.0,78,0.00,,,0.06,,2013-11-08 14:11:00,
2013-11-08 09:22:00,35.0,29.0,29.90,WSW,251,1.0,3.0,78,0.00,,,0.06,,2013-11-08 14:22:00,
2013-11-08 09:42:00,42.0,31.0,29.90,WSW,258,4.0,9.0,66,0.00,,,0.06,,2013-11-08 14:42:00,
2013-11-08 09:52:00,42.0,32.0,29.90,West,270,4.0,11.0,67,0.00,,,0.06,,2013-11-08 14:52:00,
2013-11-08 10:11:00,44.0,33.0,29.90,West,271,4.0,10.0,65,0.00,,,0.06,,2013-11-08 15:11:00,
2013-11-08 10:22:00,44.0,33.0,29.90,West,271,4.0,10.0,65,0.00,,,0.06,,2013-11-08 15:22:00,
2013-11-08 10:44:00,46.0,35.0,29.89,West,277,5.0,11.0,65,0.00,,,0.06,,2013-11-08 15:44:00,
2013-11-08 10:53:00,45.0,33.0,29.89,WNW,285,4.0,10.0,62,0.00,,,0.06,,2013-11-08 15:53:00,
2013-11-08 11:13:00,46.0,32.0,29.88,WNW,289,3.0,8.0,59,0.00,,,0.06,,2013-11-08 16:13:00,
2013-11-08 11:23:00,45.0,32.0,29.88,WNW,283,3.0,9.0,60,0.00,,,0.06,,2013-11-08 16:23:00,
2013-11-08 11:42:00,45.0,31.0,29.88,WNW,283,4.0,10.0,57,0.00,,,0.06,,2013-11-08 16:42:00,
2013-11-08 11:53:00,48.0,33.0,29.87,West,276,5.0,11.0,55,0.00,,,0.06,,2013-11-08 16:53:00,
2013-11-08 12:12:00,47.0,30.0,29.86,West,270,8.0,18.0,51,0.00,,,0.06,,2013-11-08 17:12:00,
2013-11-08 12:22:00,47.0,30.0,29.86,West,270,8.0,18.0,51,0.00,,,0.06,,2013-11-08 17:22:00,
2013-11-08 12:33:00,47.0,30.0,29.86,West,270,8.0,18.0,51,0.00,,,0.06,,2013-11-08 17:33:00,
2013-11-08 12:43:00,47.0,30.0,29.86,West,270,8.0,18.0,51,0.00,,,0.06,,2013-11-08 17:43:00,
2013-11-08 13:12:00,46.0,29.0,29.85,West,268,5.0,14.0,51,0.00,,,0.06,,2013-11-08 18:12:00,
2013-11-08 13:22:00,46.0,29.0,29.85,West,268,5.0,14.0,51,0.00,,,0.06,,2013-11-08 18:22:00,
2013-11-08 13:43:00,46.0,30.0,29.86,West,273,7.0,14.0,54,0.00,,,0.04,,2013-11-08 18:43:00,
2013-11-08 13:53:00,48.0,31.0,29.85,West,274,7.0,15.0,52,0.00,,,0.04,,2013-11-08 18:53:00,
2013-11-08 14:12:00,47.0,29.0,29.85,West,267,6.0,18.0,49,0.00,,,0.04,,2013-11-08 19:12:00,
2013-11-08 14:22:00,47.0,29.0,29.85,West,277,7.0,16.0,49,0.00,,,0.04,,2013-11-08 19:22:00,
2013-11-08 14:42:00,46.0,29.0,29.87,West,274,9.0,20.0,52,0.00,,,0.04,,2013-11-08 19:42:00,
2013-11-08 14:52:00,46.0,29.0,29.87,West,274,9.0,20.0,52,0.00,,,0.04,,2013-11-08 19:52:00,
2013-11-08 15:12:00,45.0,30.0,29.87,West,271,7.0,13.0,55,0.00,,,0.04,,2013-11-08 20:12:00,
2013-11-08 15:22:00,45.0,30.0,29.87,West,271,7.0,13.0,55,0.00,,,0.04,,2013-11-08 20:22:00,
2013-11-08 15:42:00,44.0,31.0,29.89,West,270,6.0,16.0,60,0.00,,,0.02,,2013-11-08 20:42:00,
2013-11-08 15:53:00,44.0,31.0,29.89,West,270,6.0,16.0,60,0.00,,,0.02,,2013-11-08 20:53:00,
2013-11-08 16:12:00,43.0,30.0,29.90,West,279,4.0,14.0,60,0.00,,,0.01,,2013-11-08 21:12:00,
2013-11-08 16:22:00,43.0,30.0,29.90,WNW,292,3.0,12.0,61,0.00,,,0.00,,2013-11-08 21:22:00,
2013-11-08 16:44:00,42.0,30.0,29.90,NNW,333,0.0,4.0,62,0.00,,,0.00,,2013-11-08 21:44:00,
2013-11-08 16:54:00,41.0,30.0,29.91,WNW,282,1.0,5.0,64,0.00,,,0.00,,2013-11-08 21:54:00,
2013-11-08 17:13:00,41.0,30.0,29.92,WNW,286,0.0,4.0,65,0.00,,,0.00,,2013-11-08 22:13:00,
2013-11-08 17:24:00,41.0,30.0,29.94,WNW,286,6.0,17.0,64,0.00,,,0.00,,2013-11-08 22:24:00,
2013-11-08 17:43:00,41.0,29.0,29.94,West,280,7.0,19.0,61,0.00,,,0.00,,2013-11-08 22:43:00,
2013-11-08 17:53:00,41.0,29.0,29.94,West,280,7.0,19.0,61,0.00,,,0.00,,2013-11-08 22:53:00,
2013-11-08 18:12:00,39.0,26.0,29.97,West,276,4.0,12.0,59,0.00,,,0.00,,2013-11-08 23:12:00,
2013-11-08 18:22:00,39.0,25.0,29.97,WNW,283,4.0,10.0,58,0.00,,,0.00,,2013-11-08 23:22:00,
2013-11-08 18:53:00,38.0,25.0,29.98,WNW,289,4.0,9.0,59,0.00,,,0.00,,2013-11-08 23:53:00,
2013-11-08 19:12:00,38.0,25.0,29.98,WNW,285,3.0,10.0,59,0.00,,,0.00,,2013-11-09 00:12:00,
2013-11-08 19:22:00,37.0,24.0,29.99,WNW,285,4.0,10.0,59,0.00,,,0.00,,2013-11-09 00:22:00,
2013-11-08 19:32:00,37.0,24.0,29.99,WNW,285,4.0,10.0,59,0.00,,,0.00,,2013-11-09 00:32:00,
2013-11-08 19:52:00,36.0,23.0,30.00,WNW,283,3.0,8.0,59,0.00,,,0.00,,2013-11-09 00:52:00,
2013-11-08 20:11:00,36.0,23.0,30.01,West,275,3.0,9.0,59,0.00,,,0.00,,2013-11-09 01:11:00,
2013-11-08 20:22:00,36.0,23.0,30.01,West,275,3.0,9.0,59,0.00,,,0.00,,2013-11-09 01:22:00,
2013-11-08 20:42:00,36.0,23.0,30.01,West,280,4.0,10.0,58,0.00,,,0.00,,2013-11-09 01:42:00,
2013-11-08 20:52:00,36.0,23.0,30.02,West,278,1.0,4.0,59,0.00,,,0.00,,2013-11-09 01:52:00,
2013-11-08 21:12:00,34.0,23.0,30.02,West,259,0.0,4.0,65,0.00,,,0.00,,2013-11-09 02:12:00,
2013-11-08 21:22:00,34.0,23.0,30.02,WSW,255,1.0,4.0,65,0.00,,,0.00,,2013-11-09 02:22:00,
2013-11-08 21:42:00,32.0,22.0,30.03,WSW,258,1.0,3.0,67,0.00,,,0.00,,2013-11-09 02:42:00,
2013-11-08 21:52:00,32.0,23.0,30.03,West,268,2.0,8.0,68,0.00,,,0.00,,2013-11-09 02:52:00,
2013-11-08 22:02:00,32.0,23.0,30.03,West,268,2.0,8.0,68,0.00,,,0.00,,2013-11-09 03:02:00,
2013-11-08 22:22:00,35.0,24.0,30.04,West,276,3.0,7.0,63,0.00,,,0.00,,2013-11-09 03:22:00,
2013-11-08 22:54:00,36.0,24.0,30.04,West,273,3.0,8.0,61,0.00,,,0.00,,2013-11-09 03:54:00,
2013-11-08 23:23:00,36.0,24.0,30.04,West,273,3.0,10.0,61,0.00,,,0.00,,2013-11-09 04:23:00,
2013-11-08 23:42:00,37.0,24.0,30.04,West,273,4.0,11.0,59,0.00,,,0.00,,2013-11-09 04:42:00,
2013-11-08 23:53:00,37.0,24.0,30.05,West,281,5.0,12.0,58,0.00,,,0.00,,2013-11-09 04:53:00,